Hub, New York
Current Conditions -  °F | °C
As of 9:51 AM on Thursday 18 Dec 2014 (Local Time) from KLGA Reporting Station
Broken Clouds Broken Clouds  
Wind Chill: 30°   Ceiling: 4000
Heat Index: 39°   Visibility: 10mi
Dew Point: 24°   Wind: 18mph
Humidity: 55%   Direction: 300°WNW
Pressure: 29.99"   Gusts: 28mph
Location:  40.8147°N, 73.9084°W
Report Text: KLGA 181451Z 30016G24KT 10SM BKN040 04/M04 A2999 RMK AO2 SLP156 T00391044 53013
Loading
Personal Weather Stations






























Interactive Weather Map New forecast layout! Learn more

10-Day Weather Forecast

Advertisements
Track Severe Weather on mobile